Time;durP1;ratioP1;P1;durP2;ratioP2;P2;SDS_P1;SDS_P2;PMS_P1;PMS_P2;Temp;Humidity;BMP_temperature;BMP_pressure;BME280_temperature;BME280_humidity;BME280_pressure;Samples;Min_cycle;Max_cycle;Signal;HPM_P1;HPM_P2
2022/04/28 00:01:44;;;;;;;7.30;4.90;;;;;;101353.52;;;;107255;1274;64864;-35
2022/04/28 00:04:12;;;;;;;6.40;4.40;;;;;;101352.91;;;;107266;1274;64877;-34
2022/04/28 00:06:39;;;;;;;7.20;5.30;;;;;;101347.70;;;;107303;1274;66394;-34
2022/04/28 00:09:07;;;;;;;6.90;4.80;;;;;;101351.83;;;;107252;1274;64869;-33
2022/04/28 00:11:37;;;;;;;7.10;4.90;;;;;;101355.98;;;;107260;1274;64940;-36
2022/04/28 00:14:07;;;;;;;7.40;5.10;;;;;;101356.16;;;;107251;1274;64889;-36
2022/04/28 00:16:35;;;;;;;6.80;4.80;;;;;;101355.65;;;;107276;1274;64766;-36
2022/04/28 00:19:03;;;;;;;8.30;5.40;;;;;;101353.05;;;;107247;1274;64791;-36
2022/04/28 00:21:33;;;;;;;7.40;5.50;;;;;;101354.23;;;;107287;1274;64014;-36
2022/04/28 00:24:00;;;;;;;7.00;4.80;;;;;;101353.16;;;;107254;1274;64747;-36
2022/04/28 00:26:27;;;;;;;9.00;5.80;;;;;;101350.90;;;;107247;1275;64968;-34
2022/04/28 00:28:59;;;;;;;7.80;5.40;;;;;;101355.14;;;;107309;1274;64779;-34
2022/04/28 00:31:26;;;;;;;7.50;5.50;;;;;;101355.41;;;;107285;1274;65902;-35
2022/04/28 00:33:55;;;;;;;8.80;5.30;;;;;;101355.16;;;;107250;1274;64754;-36
2022/04/28 00:36:22;;;;;;;7.00;4.90;;;;;;101353.10;;;;107316;1274;64613;-36
2022/04/28 00:38:49;;;;;;;7.60;5.30;;;;;;101352.30;;;;107253;1274;64867;-36
2022/04/28 00:41:17;;;;;;;7.70;5.40;;;;;;101351.55;;;;107282;1274;64811;-35
2022/04/28 00:43:49;;;;;;;7.40;5.00;;;;;;101349.45;;;;107232;1274;66466;-35
2022/04/28 00:46:17;;;;;;;7.80;5.30;;;;;;101348.98;;;;107285;1274;65051;-35
2022/04/28 00:51:35;;;;;;;7.00;5.20;;;;;;101349.69;;;;107253;1273;64763;-35
2022/04/28 00:54:04;;;;;;;7.60;5.10;;;;;;101346.69;;;;107208;1274;64980;-35
2022/04/28 00:56:31;;;;;;;7.60;5.30;;;;;;101350.02;;;;107297;1273;64843;-35
2022/04/28 00:59:02;;;;;;;8.30;5.60;;;;;;101352.19;;;;107263;1275;64846;-35
2022/04/28 01:01:33;;;;;;;7.50;4.90;;;;;;101350.20;;;;107279;1274;64861;-34
2022/04/28 01:04:05;;;;;;;7.50;5.10;;;;;;101349.30;;;;107252;1274;64878;-33
2022/04/28 01:06:32;;;;;;;7.70;5.20;;;;;;101345.73;;;;107311;1272;64830;-34
2022/04/28 01:09:02;;;;;;;7.70;5.00;;;;;;101345.36;;;;107264;1274;66201;-35
2022/04/28 01:11:31;;;;;;;7.70;5.30;;;;;;101344.27;;;;107260;1274;64763;-35
2022/04/28 01:13:58;;;;;;;6.80;5.30;;;;;;101344.55;;;;107246;1274;64751;-35
2022/04/28 01:16:25;;;;;;;8.80;5.60;;;;;;101344.30;;;;107199;1274;64757;-35
2022/04/28 01:18:52;;;;;;;7.20;5.00;;;;;;101339.90;;;;107268;1274;64744;-35
2022/04/28 01:21:20;;;;;;;8.10;5.60;;;;;;101337.07;;;;107298;1273;64867;-34
2022/04/28 01:23:47;;;;;;;7.50;5.00;;;;;;101336.55;;;;107257;1274;64846;-34
2022/04/28 01:26:18;;;;;;;8.30;5.80;;;;;;101335.34;;;;107281;1274;64739;-35
2022/04/28 01:28:47;;;;;;;8.40;5.60;;;;;;101333.02;;;;107239;1274;65089;-36
2022/04/28 01:31:17;;;;;;;7.50;5.20;;;;;;101335.39;;;;107289;1274;64843;-36
2022/04/28 01:33:47;;;;;;;6.90;5.00;;;;;;101334.02;;;;107248;1274;66138;-35
2022/04/28 01:36:14;;;;;;;7.40;5.20;;;;;;101331.60;;;;107254;1274;64990;-35
2022/04/28 01:38:44;;;;;;;7.00;5.00;;;;;;101330.86;;;;107266;1274;64876;-36
2022/04/28 01:41:14;;;;;;;8.10;5.10;;;;;;101326.89;;;;107240;1274;64776;-35
2022/04/28 01:43:45;;;;;;;7.60;4.80;;;;;;101321.84;;;;107296;1274;64757;-35
2022/04/28 01:46:16;;;;;;;7.50;5.30;;;;;;101318.73;;;;107284;1274;65630;-36
2022/04/28 01:48:46;;;;;;;7.30;5.10;;;;;;101314.09;;;;107233;1274;64789;-35
2022/04/28 01:56:48;;;;;;;7.20;5.10;;;;;;101310.86;;;;107262;1274;64854;-35
2022/04/28 01:59:18;;;;;;;7.10;4.80;;;;;;101313.11;;;;107206;1274;65973;-35
2022/04/28 02:01:45;;;;;;;7.80;4.70;;;;;;101318.74;;;;107284;1274;65012;-34
2022/04/28 02:04:16;;;;;;;7.80;5.40;;;;;;101316.46;;;;107251;1274;65989;-35
2022/04/28 02:06:43;;;;;;;7.30;5.00;;;;;;101320.42;;;;107274;1272;64887;-35
2022/04/28 02:09:11;;;;;;;6.80;4.70;;;;;;101323.73;;;;107259;1274;64871;-35
2022/04/28 02:11:41;;;;;;;7.30;5.00;;;;;;101322.70;;;;107322;1274;65958;-34
2022/04/28 02:14:09;;;;;;;7.40;5.00;;;;;;101319.71;;;;107263;1274;64898;-34
2022/04/28 02:16:39;;;;;;;8.00;5.10;;;;;;101323.23;;;;107286;1274;64868;-35
2022/04/28 02:19:06;;;;;;;7.70;5.70;;;;;;101325.15;;;;107256;1274;64782;-34
2022/04/28 02:21:33;;;;;;;7.60;5.00;;;;;;101325.73;;;;107281;1274;64827;-42
2022/04/28 02:24:00;;;;;;;7.70;5.10;;;;;;101327.70;;;;107256;1273;64934;-35
2022/04/28 02:26:28;;;;;;;7.30;5.30;;;;;;101327.69;;;;107269;1274;63991;-35
2022/04/28 02:28:55;;;;;;;8.10;5.20;;;;;;101327.23;;;;107271;1274;64787;-35
2022/04/28 02:31:22;;;;;;;7.00;4.70;;;;;;101327.45;;;;107240;1274;64869;-35
2022/04/28 02:33:52;;;;;;;6.90;4.60;;;;;;101326.38;;;;107265;1274;64916;-35
2022/04/28 02:36:19;;;;;;;7.80;5.40;;;;;;101321.95;;;;107280;1274;66109;-34
2022/04/28 02:38:47;;;;;;;7.20;5.10;;;;;;101323.79;;;;107254;1274;64622;-35
2022/04/28 02:41:20;;;;;;;7.30;5.10;;;;;;101322.21;;;;107275;1274;64840;-35
2022/04/28 02:43:51;;;;;;;7.00;5.10;;;;;;101320.02;;;;107247;1274;64837;-35
2022/04/28 02:46:18;;;;;;;7.20;4.80;;;;;;101316.98;;;;107283;1274;64888;-35
2022/04/28 02:48:49;;;;;;;7.30;5.50;;;;;;101315.35;;;;107164;1274;65964;-36
2022/04/28 02:51:19;;;;;;;7.40;4.60;;;;;;101318.28;;;;107244;1274;64835;-35
2022/04/28 02:53:46;;;;;;;7.90;5.00;;;;;;101316.95;;;;107244;1273;64747;-35
2022/04/28 02:56:13;;;;;;;6.10;4.40;;;;;;101313.25;;;;107138;1275;64767;-35
2022/04/28 02:58:44;;;;;;;7.20;4.70;;;;;;101311.13;;;;107225;1274;65033;-35
2022/04/28 03:01:14;;;;;;;7.90;4.90;;;;;;101313.13;;;;107301;1274;67528;-35
2022/04/28 03:03:42;;;;;;;7.80;4.80;;;;;;101315.76;;;;107250;1274;64690;-35
2022/04/28 03:11:47;;;;;;;7.20;5.00;;;;;;101328.95;;;;107285;1274;65180;-35
2022/04/28 03:14:14;;;;;;;7.30;4.80;;;;;;101330.57;;;;107266;1274;66001;-35
2022/04/28 03:16:45;;;;;;;7.20;4.80;;;;;;101332.77;;;;107237;1274;64862;-35
2022/04/28 03:19:16;;;;;;;7.50;5.10;;;;;;101333.08;;;;107256;1274;64744;-36
2022/04/28 03:21:43;;;;;;;7.00;4.60;;;;;;101335.94;;;;107242;1274;64866;-35
2022/04/28 03:24:10;;;;;;;7.10;4.90;;;;;;101334.61;;;;107281;1274;64802;-35
2022/04/28 03:26:39;;;;;;;7.20;4.90;;;;;;101334.44;;;;107280;1274;65262;-36
2022/04/28 03:29:06;;;;;;;8.20;5.40;;;;;;101335.79;;;;107239;1274;64952;-35
2022/04/28 03:31:34;;;;;;;7.20;4.90;;;;;;101337.05;;;;107315;1274;65432;-35
2022/04/28 03:34:01;;;;;;;7.50;4.90;;;;;;101338.30;;;;107250;1274;64954;-34
2022/04/28 03:39:13;;;;;;;6.80;4.70;;;;;;101334.95;;;;107258;1274;67658;-35
2022/04/28 03:41:40;;;;;;;7.10;4.60;;;;;;101331.94;;;;107276;1273;63595;-35
2022/04/28 03:44:11;;;;;;;7.30;4.60;;;;;;101333.05;;;;107260;1274;64706;-35
2022/04/28 03:46:38;;;;;;;6.70;4.50;;;;;;101339.04;;;;107263;1274;64823;-35
2022/04/28 03:49:08;;;;;;;7.80;5.20;;;;;;101341.75;;;;107292;1272;64827;-35
2022/04/28 03:51:35;;;;;;;6.60;4.50;;;;;;101343.81;;;;107294;1274;64881;-39
2022/04/28 03:54:05;;;;;;;6.80;4.70;;;;;;101345.70;;;;107249;1274;64760;-35
2022/04/28 03:56:33;;;;;;;6.80;4.30;;;;;;101346.92;;;;107300;1274;65228;-35
2022/04/28 03:59:04;;;;;;;7.60;4.70;;;;;;101348.08;;;;107231;1274;64773;-35
2022/04/28 04:01:31;;;;;;;7.00;4.60;;;;;;101348.20;;;;107282;1274;63452;-44
2022/04/28 04:04:01;;;;;;;6.20;4.30;;;;;;101347.95;;;;107253;1274;65848;-35
2022/04/28 04:06:28;;;;;;;8.00;4.60;;;;;;101343.50;;;;107242;1274;65020;-36
2022/04/28 04:08:58;;;;;;;7.10;4.40;;;;;;101339.34;;;;107254;1274;64777;-36
2022/04/28 04:11:30;;;;;;;6.10;4.20;;;;;;101342.50;;;;107163;1274;64858;-35
2022/04/28 04:14:00;;;;;;;7.40;4.60;;;;;;101342.50;;;;107297;1274;64782;-49
2022/04/28 04:16:30;;;;;;;7.10;4.30;;;;;;101347.47;;;;107054;1272;314133;-36
2022/04/28 04:19:00;;;;;;;7.10;4.70;;;;;;101356.21;;;;107271;1274;64835;-37
2022/04/28 04:21:27;;;;;;;6.10;4.40;;;;;;101359.33;;;;107282;1274;64792;-50
2022/04/28 04:23:54;;;;;;;6.80;4.60;;;;;;101359.83;;;;107245;1274;64909;-35
2022/04/28 04:26:25;;;;;;;7.30;4.50;;;;;;101361.54;;;;107207;1274;64730;-40
2022/04/28 04:28:52;;;;;;;6.70;4.50;;;;;;101360.55;;;;107269;1274;67296;-37
2022/04/28 04:34:08;;;;;;;6.60;4.10;;;;;;101365.25;;;;107270;1274;64760;-35
2022/04/28 04:36:38;;;;;;;6.70;4.80;;;;;;101366.08;;;;107249;1274;64898;-35
2022/04/28 04:39:06;;;;;;;7.20;4.20;;;;;;101368.09;;;;107283;1274;64740;-35
2022/04/28 04:41:33;;;;;;;6.80;4.50;;;;;;101368.30;;;;107274;1274;64856;-36
2022/04/28 04:44:04;;;;;;;6.30;4.20;;;;;;101368.10;;;;107252;1274;64798;-36
2022/04/28 04:46:31;;;;;;;6.40;4.10;;;;;;101371.07;;;;107298;1274;64860;-41
2022/04/28 04:48:58;;;;;;;7.00;4.30;;;;;;101374.03;;;;107278;1274;64773;-35
2022/04/28 04:51:28;;;;;;;6.10;4.00;;;;;;101376.92;;;;107285;1274;66123;-36
2022/04/28 04:53:55;;;;;;;6.90;4.50;;;;;;101377.31;;;;107261;1274;67203;-41
2022/04/28 04:56:23;;;;;;;7.20;4.50;;;;;;101370.39;;;;107297;1273;64859;-36
2022/04/28 04:58:50;;;;;;;7.30;4.50;;;;;;101366.77;;;;107258;1274;64853;-35
2022/04/28 05:01:20;;;;;;;6.50;4.10;;;;;;101363.74;;;;107275;1274;64632;-36
2022/04/28 05:03:50;;;;;;;7.40;4.40;;;;;;101361.99;;;;107260;1274;64737;-36
2022/04/28 05:06:20;;;;;;;6.10;4.00;;;;;;101363.09;;;;107229;1274;66390;-35
2022/04/28 05:08:47;;;;;;;6.40;4.20;;;;;;101361.64;;;;107256;1274;64907;-41
2022/04/28 05:11:14;;;;;;;6.30;4.00;;;;;;101362.61;;;;107294;1273;64606;-37
2022/04/28 05:13:41;;;;;;;6.90;4.30;;;;;;101366.63;;;;107271;1274;64885;-36
2022/04/28 05:16:09;;;;;;;6.90;4.60;;;;;;101371.96;;;;107300;1274;64832;-35
2022/04/28 05:18:38;;;;;;;6.80;4.30;;;;;;101375.83;;;;107263;1274;66278;-35
2022/04/28 05:21:05;;;;;;;6.80;4.20;;;;;;101375.22;;;;107307;1272;64891;-37
2022/04/28 05:23:32;;;;;;;6.10;4.50;;;;;;101376.48;;;;107250;1274;64792;-36
2022/04/28 05:25:59;;;;;;;6.20;4.20;;;;;;101374.90;;;;107287;1274;64822;-37
2022/04/28 05:28:29;;;;;;;6.10;4.10;;;;;;101374.86;;;;107282;1274;64843;-36
2022/04/28 05:30:57;;;;;;;5.50;4.00;;;;;;101375.42;;;;107273;1274;65272;-37
2022/04/28 05:33:24;;;;;;;6.70;4.10;;;;;;101378.26;;;;107236;1273;64996;-37
2022/04/28 05:35:54;;;;;;;6.00;4.00;;;;;;101384.89;;;;107281;1274;64829;-38
2022/04/28 05:38:23;;;;;;;6.70;4.00;;;;;;101386.52;;;;107275;1272;64878;-36
2022/04/28 05:40:54;;;;;;;6.60;4.30;;;;;;101389.04;;;;107283;1274;64965;-37
2022/04/28 05:46:10;;;;;;;6.80;4.00;;;;;;101390.77;;;;107283;1274;64895;-35
2022/04/28 05:48:37;;;;;;;6.20;3.80;;;;;;101388.05;;;;107259;1274;64849;-36
2022/04/28 05:51:04;;;;;;;6.50;4.00;;;;;;101391.30;;;;107263;1274;64626;-40
2022/04/28 05:53:34;;;;;;;6.20;4.00;;;;;;101395.33;;;;107310;1274;64741;-35
2022/04/28 05:56:01;;;;;;;6.80;4.30;;;;;;101395.92;;;;107287;1274;66392;-35
2022/04/28 05:58:32;;;;;;;5.70;3.90;;;;;;101401.59;;;;107249;1274;64809;-36
2022/04/28 06:01:02;;;;;;;6.30;3.90;;;;;;101405.35;;;;107287;1274;64612;-35
2022/04/28 06:03:30;;;;;;;6.90;3.90;;;;;;101407.77;;;;107271;1274;64731;-35
2022/04/28 06:06:00;;;;;;;6.00;3.50;;;;;;101408.02;;;;107301;1272;64997;-36
2022/04/28 06:08:28;;;;;;;6.50;3.60;;;;;;101416.34;;;;107196;1274;68262;-36
2022/04/28 06:10:57;;;;;;;6.10;4.10;;;;;;101424.41;;;;107278;1274;64845;-48
2022/04/28 06:13:27;;;;;;;5.90;3.70;;;;;;101429.14;;;;107271;1274;65481;-36
2022/04/28 06:15:58;;;;;;;5.70;3.50;;;;;;101428.86;;;;107287;1274;64863;-38
2022/04/28 06:18:27;;;;;;;6.60;4.00;;;;;;101421.59;;;;107298;1274;64753;-36
2022/04/28 06:20:55;;;;;;;5.80;3.80;;;;;;101419.36;;;;107289;1274;65310;-36
2022/04/28 06:23:22;;;;;;;6.70;3.90;;;;;;101421.97;;;;107187;1274;64823;-36
2022/04/28 06:25:50;;;;;;;5.50;3.80;;;;;;101424.95;;;;107310;1274;64852;-36
2022/04/28 06:28:18;;;;;;;6.00;4.00;;;;;;101424.53;;;;107285;1274;64769;-36
2022/04/28 06:30:46;;;;;;;6.40;3.80;;;;;;101427.04;;;;107321;1274;64805;-35
2022/04/28 06:33:18;;;;;;;5.60;3.40;;;;;;101428.02;;;;107254;1273;67552;-35
2022/04/28 06:35:48;;;;;;;6.20;4.00;;;;;;101430.84;;;;107271;1274;64801;-35
2022/04/28 06:38:16;;;;;;;6.50;3.90;;;;;;101434.18;;;;107296;1274;64792;-35
2022/04/28 06:40:43;;;;;;;6.10;3.90;;;;;;101433.99;;;;107249;1274;64715;-35
2022/04/28 06:43:13;;;;;;;6.10;4.00;;;;;;101439.83;;;;107232;1274;64728;-35
2022/04/28 06:46:11;;;;;;;5.80;3.60;;;;;;101438.33;;;;107226;1274;66338;-35
2022/04/28 06:48:34;;;;;;;6.50;4.00;;;;;;101437.19;;;;107276;1274;65031;-36
2022/04/28 06:51:01;;;;;;;6.20;3.60;;;;;;101434.05;;;;107232;1274;63980;-35
2022/04/28 06:53:31;;;;;;;8.30;4.50;;;;;;101432.05;;;;107263;1274;64757;-35
2022/04/28 06:56:02;;;;;;;9.30;4.60;;;;;;101434.20;;;;107268;1274;64731;-35
2022/04/28 06:58:29;;;;;;;7.50;4.50;;;;;;101432.39;;;;107174;1274;66438;-35
2022/04/28 07:01:00;;;;;;;8.30;4.50;;;;;;101426.45;;;;107244;1274;64798;-36
2022/04/28 07:03:31;;;;;;;7.90;4.20;;;;;;101430.46;;;;107252;1274;64863;-35
2022/04/28 07:06:02;;;;;;;7.60;4.20;;;;;;101433.25;;;;107263;1274;64834;-35
2022/04/28 07:08:32;;;;;;;7.60;4.10;;;;;;101437.55;;;;107280;1274;64958;-36
2022/04/28 07:11:02;;;;;;;8.00;4.20;;;;;;101432.88;;;;107274;1274;64931;-35
2022/04/28 07:13:36;;;;;;;7.80;4.60;;;;;;101431.54;;;;107254;1274;65357;-34
2022/04/28 07:16:07;;;;;;;8.50;4.30;;;;;;101431.46;;;;107255;1274;64863;-35
2022/04/28 07:18:38;;;;;;;7.30;4.40;;;;;;101429.94;;;;107279;1274;64859;-35
2022/04/28 07:21:05;;;;;;;6.70;4.40;;;;;;101431.77;;;;107291;1274;64850;-36
2022/04/28 07:23:37;;;;;;;8.60;4.00;;;;;;101433.48;;;;107183;1274;66477;-35
2022/04/28 07:26:09;;;;;;;7.10;3.90;;;;;;101431.34;;;;107183;1274;64965;-35
2022/04/28 07:28:39;;;;;;;7.20;4.50;;;;;;101436.33;;;;107293;1274;64850;-34
2022/04/28 07:31:07;;;;;;;8.00;4.20;;;;;;101439.55;;;;107271;1274;64866;-34
2022/04/28 07:33:37;;;;;;;7.90;4.50;;;;;;101435.89;;;;107303;1274;64741;-34
2022/04/28 07:36:05;;;;;;;8.30;3.90;;;;;;101436.77;;;;107287;1274;65953;-35
2022/04/28 07:38:35;;;;;;;7.80;3.70;;;;;;101439.11;;;;107247;1274;64773;-36
2022/04/28 07:41:02;;;;;;;7.30;4.20;;;;;;101440.52;;;;107264;1274;64582;-35
2022/04/28 07:43:36;;;;;;;6.70;3.90;;;;;;101440.33;;;;107221;1274;64857;-35
2022/04/28 07:46:04;;;;;;;7.30;4.20;;;;;;101441.87;;;;107214;1274;64789;-36
2022/04/28 07:48:38;;;;;;;7.40;4.20;;;;;;101439.49;;;;107248;1273;66195;-36
2022/04/28 07:51:05;;;;;;;;;;;;;;101437.85;;;;107200;1274;64749;-35
2022/04/28 07:53:35;;;;;;;7.20;3.90;;;;;;101440.56;;;;107273;1274;64725;-37
2022/04/28 07:56:15;;;;;;;8.10;4.00;;;;;;101443.98;;;;107177;1274;64773;-44
2022/04/28 07:58:47;;;;;;;8.60;3.80;;;;;;101446.75;;;;107269;1274;64799;-36
2022/04/28 08:01:15;;;;;;;7.10;3.90;;;;;;101448.80;;;;107352;1274;67323;-34
2022/04/28 08:03:46;;;;;;;7.90;4.00;;;;;;101449.52;;;;107268;1274;64764;-34
2022/04/28 08:06:13;;;;;;;7.00;4.00;;;;;;101449.06;;;;107289;1274;64770;-33
2022/04/28 08:08:42;;;;;;;7.60;4.30;;;;;;101449.72;;;;107103;1274;64773;-32
2022/04/28 08:11:09;;;;;;;6.80;4.10;;;;;;101450.02;;;;107327;1274;64752;-33
2022/04/28 08:13:36;;;;;;;7.00;3.90;;;;;;101448.33;;;;107279;1274;66159;-33
2022/04/28 08:16:04;;;;;;;6.50;4.00;;;;;;101452.69;;;;107247;1274;64876;-39
2022/04/28 08:18:31;;;;;;;6.20;3.70;;;;;;101454.89;;;;107140;1274;66274;-36
2022/04/28 08:21:00;;;;;;;6.40;4.10;;;;;;101458.84;;;;107206;1274;64972;-37
2022/04/28 08:23:27;;;;;;;7.90;4.00;;;;;;101457.85;;;;107234;1274;64772;-35
2022/04/28 08:25:56;;;;;;;7.50;4.20;;;;;;101460.33;;;;107143;1273;65264;-30
2022/04/28 08:28:25;;;;;;;7.60;4.10;;;;;;101459.74;;;;107163;1274;64848;-30
2022/04/28 08:30:52;;;;;;;7.90;4.40;;;;;;101458.89;;;;107142;1274;64857;-49
2022/04/28 08:33:20;;;;;;;6.70;4.00;;;;;;101452.39;;;;107193;1274;64822;-43
2022/04/28 08:35:48;;;;;;;7.70;4.00;;;;;;101452.81;;;;107213;1274;64870;-44
2022/04/28 08:38:18;;;;;;;6.40;4.00;;;;;;101454.34;;;;107163;1274;64970;-44
2022/04/28 08:40:48;;;;;;;6.90;4.20;;;;;;101451.17;;;;107236;1274;64984;-30
2022/04/28 08:43:17;;;;;;;6.20;3.90;;;;;;101451.20;;;;107116;1274;64731;-29
2022/04/28 08:48:44;;;;;;;8.80;4.30;;;;;;101444.15;;;;107088;1275;64911;-35
2022/04/28 08:51:13;;;;;;;6.70;4.00;;;;;;101441.43;;;;107193;1274;65627;-35
2022/04/28 08:53:40;;;;;;;7.20;4.30;;;;;;101439.94;;;;107157;1274;65050;-35
2022/04/28 08:56:08;;;;;;;6.10;3.80;;;;;;101436.33;;;;107097;1275;64830;-30
2022/04/28 08:58:35;;;;;;;6.30;4.10;;;;;;101437.31;;;;107123;1273;64855;-29
2022/04/28 09:01:03;;;;;;;7.10;4.10;;;;;;101440.83;;;;107161;1274;64879;-36
2022/04/28 09:03:31;;;;;;;8.10;4.40;;;;;;101436.36;;;;107163;1273;67151;-38
2022/04/28 09:06:24;;;;;;;7.00;4.20;;;;;;101434.84;;;;107156;1273;64532;-44
2022/04/28 09:08:51;;;;;;;7.70;4.30;;;;;;101431.61;;;;107114;1273;64766;-47
2022/04/28 09:11:25;;;;;;;6.20;3.70;;;;;;101427.51;;;;107127;1274;64852;-37
2022/04/28 09:14:17;;;;;;;6.70;3.90;;;;;;101428.34;;;;107240;1274;64755;-36
2022/04/28 09:16:48;;;;;;;6.60;4.00;;;;;;101429.38;;;;107140;1274;67590;-28
2022/04/28 09:19:28;;;;;;;6.20;3.80;;;;;;101427.72;;;;107213;1274;64889;-27
2022/04/28 09:22:04;;;;;;;6.30;4.20;;;;;;101429.10;;;;107236;1274;64795;-42
2022/04/28 09:24:36;;;;;;;7.10;3.70;;;;;;101431.13;;;;107134;1274;64769;-43
2022/04/28 09:27:05;;;;;;;7.00;3.80;;;;;;101434.63;;;;107259;1274;64909;-29
2022/04/28 09:29:36;;;;;;;7.00;3.70;;;;;;101430.89;;;;107246;1274;65288;-30
2022/04/28 09:32:10;;;;;;;6.60;3.80;;;;;;101432.80;;;;107105;1274;64990;-39
2022/04/28 09:34:50;;;;;;;8.30;3.80;;;;;;101429.77;;;;107287;1274;64758;-43
2022/04/28 09:37:26;;;;;;;6.80;3.80;;;;;;101427.89;;;;107233;1274;64759;-29
2022/04/28 09:42:42;;;;;;;6.80;3.80;;;;;;101427.08;;;;107269;1274;66431;-27
2022/04/28 09:45:12;;;;;;;6.50;3.60;;;;;;101427.30;;;;107295;1274;64870;-29
2022/04/28 09:47:40;;;;;;;6.00;3.70;;;;;;101428.97;;;;107184;1273;64987;-29
2022/04/28 09:50:17;;;;;;;6.70;3.60;;;;;;101427.71;;;;107286;1274;64773;-30
2022/04/28 09:52:53;;;;;;;6.30;4.00;;;;;;101427.99;;;;107165;1274;65304;-34
2022/04/28 09:55:24;;;;;;;6.60;3.80;;;;;;101427.58;;;;107252;1274;67389;-28
2022/04/28 09:57:52;;;;;;;6.00;3.60;;;;;;101424.61;;;;107269;1274;64756;-41
2022/04/28 10:00:20;;;;;;;6.40;3.80;;;;;;101424.41;;;;107167;1274;64825;-31
2022/04/28 10:02:48;;;;;;;6.50;3.70;;;;;;101422.02;;;;107259;1274;64750;-28
2022/04/28 10:05:16;;;;;;;6.00;3.80;;;;;;101424.73;;;;107280;1274;64772;-28
2022/04/28 10:07:44;;;;;;;6.50;4.20;;;;;;101427.13;;;;107191;1274;66027;-37
2022/04/28 10:10:11;;;;;;;7.40;4.00;;;;;;101426.20;;;;107254;1274;64733;-45
2022/04/28 10:12:40;;;;;;;5.90;3.90;;;;;;101426.52;;;;107172;1274;64830;-30
2022/04/28 10:15:11;;;;;;;6.30;4.50;;;;;;101425.77;;;;107175;1274;66028;-29
2022/04/28 10:18:06;;;;;;;6.30;4.10;;;;;;101419.52;;;;107191;1274;64895;-45
2022/04/28 10:20:38;;;;;;;6.10;4.00;;;;;;101415.89;;;;107281;1274;66428;-42
2022/04/28 10:23:09;;;;;;;6.60;4.70;;;;;;101421.00;;;;107288;1274;64778;-39
2022/04/28 10:34:28;;;;;;;8.90;6.10;;;;;;101418.48;;;;107202;1274;66127;-32
2022/04/28 10:37:06;;;;;;;8.70;6.70;;;;;;101424.11;;;;107222;1274;64958;-41
2022/04/28 10:39:45;;;;;;;9.30;7.00;;;;;;101423.16;;;;107184;1274;64756;-38
2022/04/28 10:42:20;;;;;;;10.10;7.10;;;;;;101422.05;;;;107244;1274;64741;-29
2022/04/28 10:44:57;;;;;;;10.00;7.20;;;;;;101419.91;;;;107226;1274;64763;-28
2022/04/28 10:47:41;;;;;;;10.70;8.50;;;;;;101422.46;;;;107280;1274;67378;-39
2022/04/28 10:50:32;;;;;;;11.90;9.10;;;;;;101428.05;;;;107244;1274;64905;-38
2022/04/28 10:53:06;;;;;;;13.80;10.20;;;;;;101423.95;;;;107265;1274;64714;-28
2022/04/28 10:55:40;;;;;;;13.10;10.20;;;;;;101424.10;;;;107244;1274;64789;-36
2022/04/28 10:58:26;;;;;;;11.90;9.50;;;;;;101424.84;;;;107188;1274;64792;-38
2022/04/28 11:01:01;;;;;;;12.50;9.50;;;;;;101426.91;;;;107309;1274;66721;-28
2022/04/28 11:03:52;;;;;;;13.00;9.40;;;;;;101421.89;;;;107233;1274;64879;-28
2022/04/28 11:06:39;;;;;;;12.50;9.30;;;;;;101421.27;;;;107174;1274;64838;-37
2022/04/28 11:09:08;;;;;;;12.40;9.10;;;;;;101425.23;;;;107253;1274;64731;-35
2022/04/28 11:11:45;;;;;;;11.50;9.00;;;;;;101429.15;;;;107251;1274;64642;-34
2022/04/28 11:14:14;;;;;;;10.90;8.90;;;;;;101424.14;;;;107296;1274;67388;-35
2022/04/28 11:16:43;;;;;;;13.90;9.60;;;;;;101419.04;;;;107285;1272;64797;-33
2022/04/28 11:19:12;;;;;;;12.30;9.30;;;;;;101415.15;;;;107283;1274;64737;-34
2022/04/28 11:21:40;;;;;;;12.40;9.10;;;;;;101418.06;;;;107181;1274;64802;-36
2022/04/28 11:24:07;;;;;;;11.60;9.20;;;;;;101415.55;;;;107277;1274;64843;-37
2022/04/28 11:26:37;;;;;;;12.30;9.20;;;;;;101417.52;;;;107158;1274;66238;-40
2022/04/28 11:29:10;;;;;;;11.80;9.30;;;;;;101421.32;;;;107246;1274;64983;-32
2022/04/28 11:31:47;;;;;;;11.80;8.50;;;;;;101423.34;;;;107273;1273;65285;-28
2022/04/28 11:34:15;;;;;;;12.20;8.70;;;;;;101418.14;;;;107132;1274;64907;-28
2022/04/28 11:36:43;;;;;;;12.20;8.80;;;;;;101416.45;;;;107153;1274;64858;-29
2022/04/28 11:39:12;;;;;;;11.30;8.80;;;;;;101417.29;;;;107131;1274;65272;-28
2022/04/28 11:41:42;;;;;;;11.70;8.60;;;;;;101416.50;;;;107234;1274;64756;-29
2022/04/28 11:44:16;;;;;;;11.00;8.50;;;;;;101415.86;;;;107084;1274;65292;-27
2022/04/28 11:46:53;;;;;;;11.50;8.30;;;;;;101415.03;;;;107201;1274;63835;-28
2022/04/28 11:49:20;;;;;;;10.50;8.00;;;;;;101418.71;;;;107098;1274;64883;-30
2022/04/28 11:51:48;;;;;;;10.50;7.30;;;;;;101414.30;;;;107132;1274;66564;-27
2022/04/28 11:54:25;;;;;;;9.80;7.60;;;;;;101405.27;;;;107089;1274;64881;-29
2022/04/28 11:57:11;;;;;;;10.50;8.10;;;;;;101404.58;;;;107194;1273;64722;-41
2022/04/28 11:59:41;;;;;;;9.40;6.80;;;;;;101406.48;;;;107224;1274;64913;-35
2022/04/28 12:02:34;;;;;;;11.80;7.80;;;;;;101407.55;;;;107221;1274;64939;-39
2022/04/28 12:05:16;;;;;;;9.60;6.80;;;;;;101402.94;;;;107211;1273;65863;-45
2022/04/28 12:07:51;;;;;;;8.80;6.80;;;;;;101402.29;;;;107075;1274;64756;-28
2022/04/28 12:16:19;;;;;;;9.00;6.60;;;;;;101400.79;;;;106974;1274;219879;-36
2022/04/28 12:21:38;;;;;;;9.00;6.70;;;;;;101400.52;;;;107105;1274;64833;-38
2022/04/28 12:24:20;;;;;;;8.80;6.40;;;;;;101399.58;;;;107151;1274;64965;-27
2022/04/28 12:26:49;;;;;;;8.60;6.00;;;;;;101397.28;;;;107042;1274;64860;-37
2022/04/28 12:29:19;;;;;;;7.90;5.30;;;;;;101397.58;;;;107177;1274;64806;-36
2022/04/28 12:31:47;;;;;;;9.30;6.60;;;;;;101397.46;;;;107130;1274;65265;-28
2022/04/28 12:34:22;;;;;;;8.60;6.00;;;;;;101394.60;;;;107112;1273;64712;-27
2022/04/28 12:36:58;;;;;;;8.20;5.60;;;;;;101397.84;;;;107067;1273;65184;-33
2022/04/28 12:39:28;;;;;;;7.70;5.80;;;;;;101399.32;;;;107148;1274;64777;-33
2022/04/28 12:41:55;;;;;;;8.60;5.90;;;;;;101400.68;;;;107114;1274;64904;-27
2022/04/28 12:44:23;;;;;;;7.60;5.40;;;;;;101395.95;;;;106951;1274;65198;-27
2022/04/28 12:47:06;;;;;;;7.30;5.10;;;;;;101394.92;;;;107519;1275;64764;-36
2022/04/28 12:49:48;;;;;;;8.00;5.80;;;;;;101394.45;;;;106957;1274;63628;-33
2022/04/28 12:52:45;;;;;;;7.60;5.40;;;;;;101391.84;;;;107034;1274;64814;-35
2022/04/28 12:55:13;;;;;;;8.10;6.10;;;;;;101392.83;;;;106972;1274;64759;-39
2022/04/28 12:57:43;;;;;;;7.50;5.70;;;;;;101391.64;;;;107039;1273;66463;-36
2022/04/28 13:00:11;;;;;;;7.40;5.10;;;;;;101386.76;;;;107032;1274;64842;-40
2022/04/28 13:02:48;;;;;;;7.50;5.30;;;;;;101382.00;;;;107189;1273;64863;-29
2022/04/28 13:05:18;;;;;;;7.40;5.10;;;;;;101384.20;;;;107133;1274;64884;-29
2022/04/28 13:07:45;;;;;;;7.00;5.60;;;;;;101385.90;;;;106990;1274;64666;-36
2022/04/28 13:10:15;;;;;;;7.40;5.20;;;;;;101386.39;;;;107117;1274;66999;-41
2022/04/28 13:12:42;;;;;;;7.20;5.50;;;;;;101390.98;;;;107157;1274;64934;-29
2022/04/28 13:15:11;;;;;;;7.00;5.20;;;;;;101391.14;;;;107165;1274;64869;-28
2022/04/28 13:17:38;;;;;;;9.10;6.20;;;;;;101388.47;;;;107195;1273;64833;-36
2022/04/28 13:20:09;;;;;;;6.60;5.00;;;;;;101389.98;;;;107249;1274;64751;-37
2022/04/28 13:22:39;;;;;;;7.70;5.50;;;;;;101383.37;;;;107251;1274;67696;-37
2022/04/28 13:25:07;;;;;;;6.80;5.20;;;;;;101384.80;;;;107219;1274;65013;-37
2022/04/28 13:27:37;;;;;;;7.10;5.60;;;;;;101382.98;;;;107260;1274;66046;-38
2022/04/28 13:30:08;;;;;;;7.60;5.40;;;;;;101384.02;;;;107109;1274;64885;-44
2022/04/28 13:32:39;;;;;;;7.20;5.10;;;;;;101375.80;;;;107304;1274;64835;-39
2022/04/28 13:35:07;;;;;;;7.00;5.10;;;;;;101375.37;;;;107261;1274;66305;-38
2022/04/28 13:37:34;;;;;;;7.30;4.90;;;;;;101376.44;;;;107255;1274;64871;-29
2022/04/28 13:40:01;;;;;;;7.80;5.20;;;;;;101377.70;;;;107217;1274;64807;-29
2022/04/28 13:42:28;;;;;;;7.30;5.10;;;;;;101375.70;;;;107151;1274;64891;-29
2022/04/28 13:44:56;;;;;;;7.50;5.40;;;;;;101377.74;;;;107223;1274;64761;-29
2022/04/28 13:47:27;;;;;;;7.30;5.50;;;;;;101374.83;;;;107258;1274;65933;-29